Time;durP1;ratioP1;P1;durP2;ratioP2;P2;SDS_P1;SDS_P2;PMS_P1;PMS_P2;Temp;Humidity;BMP_temperature;BMP_pressure;BME280_temperature;BME280_humidity;BME280_pressure;Samples;Min_cycle;Max_cycle;Signal;HPM_P1;HPM_P2
2022/01/18 00:02:01;;;;;;;21.80;14.30;;;8.00;99.90;;;;;;5081282;28;20189;-61
2022/01/18 00:04:27;;;;;;;24.77;15.33;;;7.80;99.90;;;;;;5065799;28;20189;-61
2022/01/18 00:06:53;;;;;;;28.17;15.17;;;7.80;99.90;;;;;;5066258;28;20283;-62
2022/01/18 00:09:22;;;;;;;23.10;13.90;;;7.90;99.90;;;;;;5093650;28;20209;-61
2022/01/18 00:11:57;;;;;;;20.70;14.30;;;7.80;99.90;;;;;;5068829;28;20201;-62
2022/01/18 00:14:26;;;;;;;24.27;14.70;;;7.80;99.90;;;;;;5041534;28;20272;-61
2022/01/18 00:17:15;;;;;;;31.73;14.07;;;7.70;99.90;;;;;;5072928;28;20193;-62
2022/01/18 00:19:41;;;;;;;26.40;14.67;;;7.60;99.90;;;;;;5092105;28;20549;-62
2022/01/18 00:22:12;;;;;;;22.80;13.57;;;7.50;99.90;;;;;;5094033;28;20185;-61
2022/01/18 00:24:40;;;;;;;27.67;15.00;;;7.60;99.90;;;;;;5077687;28;20189;-62
2022/01/18 00:27:12;;;;;;;28.97;14.10;;;7.80;99.90;;;;;;5082868;28;20181;-61
2022/01/18 00:29:44;;;;;;;27.20;14.47;;;7.70;99.90;;;;;;5059107;28;20259;-61
2022/01/18 00:32:24;;;;;;;21.47;14.57;;;7.70;99.90;;;;;;5059691;28;20641;-61
2022/01/18 00:34:53;;;;;;;27.00;13.77;;;7.60;99.90;;;;;;5063865;28;20267;-61
2022/01/18 00:37:35;;;;;;;28.03;15.40;;;7.80;99.90;;;;;;5086278;28;20268;-61
2022/01/18 00:40:02;;;;;;;33.20;15.20;;;8.00;99.90;;;;;;5073957;28;20177;-61
2022/01/18 00:42:27;;;;;;;28.93;15.47;;;8.30;99.90;;;;;;5083787;28;20193;-61
2022/01/18 00:44:53;;;;;;;30.50;16.23;;;8.00;99.90;;;;;;5085213;28;20633;-62
2022/01/18 00:47:19;;;;;;;27.87;15.17;;;7.70;99.90;;;;;;5093283;28;20690;-62
2022/01/18 00:49:47;;;;;;;29.57;15.87;;;7.60;99.90;;;;;;5093069;28;20568;-62
2022/01/18 00:52:16;;;;;;;23.60;15.13;;;7.60;99.90;;;;;;5075194;28;20188;-61
2022/01/18 00:54:45;;;;;;;26.67;15.63;;;7.90;99.90;;;;;;5067987;28;20185;-61
2022/01/18 00:57:11;;;;;;;26.70;14.07;;;8.10;99.90;;;;;;5061926;28;20185;-61
2022/01/18 00:59:40;;;;;;;34.17;16.93;;;8.10;99.90;;;;;;5091875;28;20204;-62
2022/01/18 01:02:05;;;;;;;32.13;16.90;;;8.10;99.90;;;;;;5093370;28;20189;-61
2022/01/18 01:04:36;;;;;;;29.23;15.47;;;8.00;99.90;;;;;;5074606;28;20246;-61
2022/01/18 01:07:02;;;;;;;26.13;15.93;;;7.80;99.90;;;;;;5079437;28;20264;-62
2022/01/18 01:09:27;;;;;;;27.83;16.23;;;7.70;99.90;;;;;;5074244;28;20310;-61
2022/01/18 01:11:53;;;;;;;30.77;16.53;;;7.60;99.90;;;;;;5093113;28;20655;-62
2022/01/18 01:14:23;;;;;;;30.20;15.70;;;7.60;99.90;;;;;;5080095;28;20604;-62
2022/01/18 01:17:48;;;;;;;25.20;15.03;;;7.70;99.90;;;;;;5074407;28;20181;-61
2022/01/18 01:36:16;;;;;;;22.17;15.57;;;8.10;99.90;;;;;;5091770;28;20585;-62
2022/01/18 01:41:49;;;;;;;24.60;16.10;;;8.10;99.90;;;;;;5092015;28;20321;-61
2022/01/18 01:44:27;;;;;;;27.70;16.60;;;8.00;99.90;;;;;;5091836;28;20280;-61
2022/01/18 01:46:53;;;;;;;28.43;19.00;;;8.20;99.90;;;;;;5079788;28;20181;-61
2022/01/18 01:49:19;;;;;;;35.80;18.60;;;8.00;99.90;;;;;;5055061;28;20201;-61
2022/01/18 01:51:47;;;;;;;47.07;18.53;;;8.00;99.90;;;;;;5073335;28;20272;-61
2022/01/18 01:54:13;;;;;;;36.50;17.90;;;8.00;99.90;;;;;;5081233;28;20192;-62
2022/01/18 01:56:39;;;;;;;36.60;16.83;;;7.90;99.90;;;;;;5060146;28;20586;-61
2022/01/18 01:59:06;;;;;;;39.97;19.57;;;8.00;99.90;;;;;;5069849;28;20200;-62
2022/01/18 02:01:46;;;;;;;32.13;17.70;;;8.00;99.90;;;;;;5077752;28;20587;-61
2022/01/18 02:04:12;;;;;;;33.13;17.53;;;8.00;99.90;;;;;;5089894;28;20180;-61
2022/01/18 02:06:38;;;;;;;30.07;17.30;;;8.10;99.90;;;;;;5046519;28;20279;-62
2022/01/18 02:09:04;;;;;;;35.30;19.17;;;8.10;99.90;;;;;;5077100;28;20295;-62
2022/01/18 02:11:30;;;;;;;28.73;17.77;;;8.10;99.90;;;;;;5091658;28;20196;-62
2022/01/18 02:13:57;;;;;;;39.53;20.73;;;8.10;99.90;;;;;;5090403;28;20656;-62
2022/01/18 02:21:52;;;;;;;31.57;17.23;;;8.10;99.90;;;;;;5086951;28;20192;-62
2022/01/18 02:24:21;;;;;;;36.53;17.63;;;8.10;99.90;;;;;;5078653;28;20264;-62
2022/01/18 02:26:47;;;;;;;38.63;18.33;;;8.20;99.90;;;;;;5085054;28;20196;-62
2022/01/18 02:29:15;;;;;;;40.53;16.63;;;8.20;99.90;;;;;;5076027;28;20216;-62
2022/01/18 02:31:41;;;;;;;38.33;17.20;;;8.10;99.90;;;;;;5092073;28;20181;-62
2022/01/18 02:34:13;;;;;;;43.73;18.03;;;8.20;99.90;;;;;;5071068;28;20715;-62
2022/01/18 02:36:39;;;;;;;40.40;17.70;;;8.10;99.90;;;;;;5072510;28;20172;-63
2022/01/18 02:39:06;;;;;;;33.43;19.00;;;8.00;99.90;;;;;;5071041;28;20189;-62
2022/01/18 02:41:33;;;;;;;40.20;18.47;;;8.00;99.90;;;;;;5073786;28;20189;-62
2022/01/18 02:44:05;;;;;;;33.77;18.03;;;8.10;99.90;;;;;;5069083;28;20182;-62
2022/01/18 02:46:31;;;;;;;37.37;18.87;;;8.20;99.90;;;;;;5072666;28;20563;-61
2022/01/18 02:48:59;;;;;;;45.47;19.10;;;8.20;99.90;;;;;;5068539;28;20553;-62
2022/01/18 02:51:25;;;;;;;32.07;18.60;;;8.10;99.90;;;;;;5090893;28;20188;-61
2022/01/18 02:54:02;;;;;;;42.87;19.43;;;8.20;99.90;;;;;;5062649;28;20197;-62
2022/01/18 02:56:34;;;;;;;42.70;19.90;;;8.10;99.90;;;;;;5054511;28;20180;-62
2022/01/18 02:59:24;;;;;;;43.10;19.27;;;8.00;99.90;;;;;;5083680;28;20702;-61
2022/01/18 03:04:42;;;;;;;50.43;21.80;;;8.00;99.90;;;;;;5069466;28;20211;-62
2022/01/18 03:07:09;;;;;;;51.03;22.70;;;8.00;99.90;;;;;;5094295;28;20633;-64
2022/01/18 03:09:35;;;;;;;50.90;21.30;;;8.00;99.90;;;;;;5085065;28;20228;-61
2022/01/18 03:12:01;;;;;;;37.00;19.20;;;8.00;99.90;;;;;;5091687;28;20200;-62
2022/01/18 03:14:27;;;;;;;48.03;20.17;;;7.90;99.90;;;;;;5058013;28;20568;-62
2022/01/18 03:16:53;;;;;;;34.33;18.27;;;7.90;99.90;;;;;;5084043;28;20318;-62
2022/01/18 03:19:19;;;;;;;43.70;20.37;;;8.00;99.90;;;;;;5095122;28;20657;-62
2022/01/18 03:21:44;;;;;;;44.37;20.53;;;8.00;99.90;;;;;;5060622;28;20259;-62
2022/01/18 03:24:42;;;;;;;51.03;20.77;;;8.00;99.90;;;;;;5086373;28;20212;-62
2022/01/18 03:29:41;;;;;;;49.73;21.90;;;8.00;99.90;;;;;;5091235;28;20582;-62
2022/01/18 03:32:08;;;;;;;54.90;20.73;;;7.80;99.90;;;;;;5059538;28;20189;-61
2022/01/18 03:34:34;;;;;;;51.17;20.73;;;8.00;99.90;;;;;;5093801;28;20183;-62
2022/01/18 03:37:00;;;;;;;62.73;21.30;;;8.10;99.90;;;;;;5075490;28;20174;-61
2022/01/18 03:39:26;;;;;;;52.90;22.43;;;8.00;99.90;;;;;;5067431;28;20197;-62
2022/01/18 03:41:55;;;;;;;60.60;22.70;;;8.20;99.90;;;;;;5078321;28;20189;-63
2022/01/18 03:44:26;;;;;;;49.83;21.30;;;8.00;99.90;;;;;;5074973;28;20185;-62
2022/01/18 03:46:53;;;;;;;49.73;23.37;;;7.90;99.90;;;;;;5063582;28;20271;-62
2022/01/18 03:49:22;;;;;;;52.53;21.73;;;7.80;99.90;;;;;;5094148;28;20605;-61
2022/01/18 03:51:48;;;;;;;48.33;21.53;;;7.80;99.90;;;;;;5076364;28;20605;-61
2022/01/18 03:54:20;;;;;;;57.97;24.10;;;7.80;99.90;;;;;;5075764;28;20212;-62
2022/01/18 03:56:46;;;;;;;56.73;24.00;;;7.60;99.90;;;;;;5090445;28;20181;-62
2022/01/18 03:59:12;;;;;;;58.17;22.73;;;7.70;99.90;;;;;;5080673;28;20199;-62
2022/01/18 04:01:37;;;;;;;51.37;24.63;;;7.80;99.90;;;;;;5053281;28;20276;-62
2022/01/18 04:04:03;;;;;;;49.93;24.83;;;7.80;99.90;;;;;;5062565;28;20588;-61
2022/01/18 04:06:29;;;;;;;51.93;23.00;;;7.90;99.90;;;;;;5089989;28;20227;-63
2022/01/18 04:08:54;;;;;;;50.57;23.37;;;7.90;99.90;;;;;;5056605;28;20238;-62
2022/01/18 04:11:20;;;;;;;48.60;23.87;;;7.90;99.90;;;;;;5074759;28;20213;-61
2022/01/18 04:13:46;;;;;;;58.73;24.47;;;8.00;99.90;;;;;;5080799;28;20678;-68
2022/01/18 04:16:12;;;;;;;42.00;22.93;;;7.90;99.90;;;;;;5069849;28;20546;-62
2022/01/18 04:18:56;;;;;;;50.23;23.70;;;7.80;99.90;;;;;;5060766;28;20189;-61
2022/01/18 04:27:10;;;;;;;45.27;22.03;;;8.00;99.90;;;;;;5026900;28;20326;-61
2022/01/18 04:29:35;;;;;;;42.43;21.03;;;7.90;99.90;;;;;;5054572;28;20311;-61
2022/01/18 04:32:01;;;;;;;45.10;20.87;;;7.80;99.90;;;;;;5086965;28;20279;-61
2022/01/18 04:34:27;;;;;;;42.50;23.07;;;7.70;99.90;;;;;;5074868;28;20626;-61
2022/01/18 04:36:52;;;;;;;41.03;21.13;;;7.60;99.90;;;;;;5083225;28;20193;-61
2022/01/18 04:39:18;;;;;;;45.63;20.40;;;7.60;99.90;;;;;;5039720;28;20251;-61
2022/01/18 04:41:45;;;;;;;44.83;20.67;;;7.70;99.90;;;;;;5043724;28;20192;-61
2022/01/18 04:49:42;;;;;;;39.20;19.90;;;7.40;99.90;;;;;;5090916;28;20231;-61
2022/01/18 04:52:10;;;;;;;43.50;20.50;;;7.50;99.90;;;;;;5092639;28;20468;-61
2022/01/18 04:54:39;;;;;;;45.90;22.77;;;7.50;99.90;;;;;;5075309;28;20284;-64
2022/01/18 04:59:31;;;;;;;37.73;17.63;;;7.50;99.90;;;;;;5057593;28;20197;-63
2022/01/18 05:01:57;;;;;;;40.10;19.57;;;7.70;99.90;;;;;;5089984;28;20196;-63
2022/01/18 05:04:22;;;;;;;33.03;19.60;;;7.60;99.90;;;;;;5038746;28;20643;-63
2022/01/18 05:06:48;;;;;;;26.77;17.57;;;7.40;99.90;;;;;;5066826;28;20637;-63
2022/01/18 05:09:14;;;;;;;40.40;17.90;;;7.30;99.90;;;;;;5066957;28;20219;-64
2022/01/18 05:11:54;;;;;;;39.63;20.60;;;7.30;99.90;;;;;;5073234;28;20196;-63
2022/01/18 05:24:06;;;;;;;31.30;16.43;;;7.40;99.90;;;;;;5079411;28;20188;-65
2022/01/18 05:26:32;;;;;;;33.33;16.03;;;7.30;99.90;;;;;;5041157;28;20196;-64
2022/01/18 05:28:58;;;;;;;28.07;14.33;;;7.30;99.90;;;;;;5086623;28;20204;-65
2022/01/18 05:31:25;;;;;;;30.07;15.23;;;7.40;99.90;;;;;;5065155;28;20200;-66
2022/01/18 05:33:50;;;;;;;32.50;16.13;;;7.20;99.90;;;;;;5090571;28;20184;-66
2022/01/18 05:36:16;;;;;;;31.03;13.70;;;7.10;99.90;;;;;;5055359;28;20188;-66
2022/01/18 05:38:42;;;;;;;22.73;14.37;;;7.20;99.90;;;;;;5070979;28;20196;-65
2022/01/18 05:41:10;;;;;;;25.83;13.57;;;7.40;99.90;;;;;;5057726;28;20641;-66
2022/01/18 05:43:36;;;;;;;30.33;13.33;;;7.40;99.90;;;;;;5092157;28;20180;-65
2022/01/18 05:46:03;;;;;;;26.13;15.37;;;7.40;99.90;;;;;;5079963;28;20273;-66
2022/01/18 05:48:29;;;;;;;31.23;14.40;;;7.40;99.90;;;;;;5091964;28;20185;-66
2022/01/18 05:50:59;;;;;;;30.77;13.97;;;7.40;99.90;;;;;;5069373;28;20217;-67
2022/01/18 05:53:30;;;;;;;32.70;12.77;;;7.40;99.90;;;;;;5055997;28;20220;-66
2022/01/18 05:55:57;;;;;;;25.67;14.20;;;7.40;99.90;;;;;;5092563;28;20185;-64
2022/01/18 05:58:22;;;;;;;19.43;13.00;;;7.50;99.90;;;;;;5073427;28;20195;-64
2022/01/18 06:00:52;;;;;;;29.57;13.80;;;7.50;99.90;;;;;;5067813;28;20192;-66
2022/01/18 06:03:27;;;;;;;24.90;13.67;;;7.40;99.90;;;;;;5072996;28;20291;-65
2022/01/18 06:08:39;;;;;;;31.80;15.63;;;7.20;99.90;;;;;;5075933;28;20208;-64
2022/01/18 06:11:05;;;;;;;36.50;15.40;;;7.30;99.90;;;;;;5086626;28;20582;-66
2022/01/18 06:13:30;;;;;;;30.07;14.33;;;7.30;99.90;;;;;;5086332;28;20531;-64
2022/01/18 06:15:59;;;;;;;28.73;14.80;;;7.20;99.90;;;;;;5092338;28;20257;-65
2022/01/18 06:18:25;;;;;;;32.17;17.00;;;7.20;99.90;;;;;;5073191;28;20189;-65
2022/01/18 06:20:52;;;;;;;25.37;14.50;;;7.30;99.90;;;;;;5091865;28;20736;-66
2022/01/18 06:23:17;;;;;;;28.73;12.83;;;7.20;99.90;;;;;;5058443;28;20181;-66
2022/01/18 06:25:43;;;;;;;29.60;13.93;;;7.20;99.90;;;;;;5073652;28;20181;-66
2022/01/18 06:28:09;;;;;;;24.50;14.17;;;7.20;99.90;;;;;;5060966;28;20238;-66
2022/01/18 06:30:34;;;;;;;32.27;14.47;;;7.20;99.90;;;;;;5052227;28;20896;-66
2022/01/18 06:33:01;;;;;;;26.43;12.90;;;7.30;99.90;;;;;;5088235;28;20181;-66
2022/01/18 06:35:26;;;;;;;25.47;13.27;;;7.30;99.90;;;;;;5076430;28;20185;-66
2022/01/18 06:37:53;;;;;;;25.93;12.23;;;7.30;99.90;;;;;;5058333;28;20620;-66
2022/01/18 06:40:18;;;;;;;24.90;13.00;;;7.40;99.90;;;;;;5080564;28;20173;-66
2022/01/18 06:42:44;;;;;;;28.33;14.03;;;7.50;99.90;;;;;;5095617;28;20652;-66
2022/01/18 06:45:11;;;;;;;24.73;12.90;;;7.40;99.90;;;;;;5074025;28;20181;-65
2022/01/18 06:47:37;;;;;;;26.87;13.33;;;7.40;99.90;;;;;;5077025;28;20184;-66
2022/01/18 06:50:05;;;;;;;31.30;15.73;;;7.50;99.90;;;;;;5093468;28;20212;-66
2022/01/18 06:52:31;;;;;;;22.17;12.60;;;7.40;99.90;;;;;;5069090;28;20236;-66
2022/01/18 06:54:57;;;;;;;33.43;15.23;;;7.60;99.90;;;;;;5065425;28;20192;-65
2022/01/18 06:57:23;;;;;;;29.57;14.50;;;7.50;99.90;;;;;;5077110;28;20180;-66
2022/01/18 06:59:49;;;;;;;28.90;12.97;;;7.10;99.90;;;;;;5077012;28;20203;-66
2022/01/18 07:02:15;;;;;;;24.23;13.07;;;6.90;99.90;;;;;;5087346;28;20181;-66
2022/01/18 07:04:40;;;;;;;30.40;15.53;;;6.90;99.90;;;;;;5076213;28;20519;-65
2022/01/18 07:07:06;;;;;;;28.83;15.30;;;6.90;99.90;;;;;;5058271;28;20258;-65
2022/01/18 07:09:32;;;;;;;35.40;14.60;;;7.10;99.90;;;;;;5063757;28;20229;-66
2022/01/18 07:11:59;;;;;;;27.27;13.53;;;7.30;99.90;;;;;;5076025;28;20204;-66
2022/01/18 07:14:25;;;;;;;26.20;14.53;;;7.30;99.90;;;;;;5081559;28;20559;-66
2022/01/18 07:16:51;;;;;;;36.50;14.43;;;7.30;99.90;;;;;;5080314;28;20177;-65
2022/01/18 07:19:17;;;;;;;35.47;14.43;;;7.10;99.90;;;;;;5057944;28;20189;-66
2022/01/18 07:21:43;;;;;;;30.43;14.70;;;7.10;99.90;;;;;;5066165;28;20208;-66
2022/01/18 07:24:35;;;;;;;31.83;17.80;;;7.40;99.90;;;;;;5068853;28;20189;-70
2022/01/18 07:27:00;;;;;;;28.47;13.20;;;7.30;99.90;;;;;;5079888;28;20196;-65
2022/01/18 07:29:26;;;;;;;32.20;12.77;;;7.30;99.90;;;;;;5090507;28;20248;-65
2022/01/18 07:31:52;;;;;;;32.70;14.17;;;7.40;99.90;;;;;;5057630;28;20177;-65
2022/01/18 07:34:18;;;;;;;39.40;16.50;;;7.60;99.90;;;;;;5094354;28;20191;-66
2022/01/18 07:36:43;;;;;;;28.37;13.60;;;7.50;99.90;;;;;;5070219;28;20181;-66
2022/01/18 07:39:09;;;;;;;27.80;13.80;;;7.50;99.90;;;;;;5074227;28;20230;-69
2022/01/18 07:41:35;;;;;;;34.37;14.50;;;7.30;99.90;;;;;;5059313;28;20634;-65
2022/01/18 07:44:00;;;;;;;32.00;15.37;;;7.40;99.90;;;;;;5057756;28;20185;-66
2022/01/18 07:46:26;;;;;;;31.30;14.17;;;7.40;99.90;;;;;;5066159;28;20246;-66
2022/01/18 07:48:52;;;;;;;38.83;16.03;;;7.30;99.90;;;;;;5086537;28;20211;-65
2022/01/18 07:51:18;;;;;;;36.93;14.70;;;7.30;99.90;;;;;;5075475;28;20219;-66
2022/01/18 07:53:43;;;;;;;30.90;14.03;;;7.20;99.90;;;;;;5065050;28;20193;-66
2022/01/18 07:56:10;;;;;;;32.10;13.33;;;7.20;99.90;;;;;;5085817;28;20192;-66
2022/01/18 07:58:35;;;;;;;34.03;14.93;;;7.40;99.90;;;;;;5083539;28;20220;-65
2022/01/18 08:01:01;;;;;;;32.73;15.63;;;7.30;99.90;;;;;;5071584;28;20213;-66
2022/01/18 08:03:29;;;;;;;32.97;15.97;;;7.20;99.90;;;;;;5093831;28;20641;-66
2022/01/18 08:05:55;;;;;;;32.47;15.07;;;7.20;99.90;;;;;;5094385;28;20177;-66
2022/01/18 08:08:21;;;;;;;26.33;12.63;;;7.30;99.90;;;;;;5076630;28;20192;-66
2022/01/18 08:10:48;;;;;;;35.00;13.60;;;7.40;99.90;;;;;;5057185;28;20257;-66
2022/01/18 08:13:14;;;;;;;37.97;15.63;;;7.40;99.90;;;;;;5083766;28;20177;-66
2022/01/18 08:15:42;;;;;;;32.03;14.50;;;7.30;99.90;;;;;;5076743;28;20180;-67
2022/01/18 08:18:10;;;;;;;24.37;13.47;;;7.40;99.90;;;;;;5075929;28;20185;-65
2022/01/18 08:20:36;;;;;;;34.43;15.73;;;7.40;99.90;;;;;;5075992;28;20208;-66
2022/01/18 08:23:02;;;;;;;36.73;13.50;;;7.30;99.90;;;;;;5067822;28;20634;-65
2022/01/18 08:25:28;;;;;;;31.50;14.47;;;7.30;99.90;;;;;;5074984;28;20548;-66
2022/01/18 08:27:53;;;;;;;35.93;16.13;;;7.50;99.90;;;;;;5084022;28;20181;-65
2022/01/18 08:30:20;;;;;;;43.87;16.27;;;7.50;99.90;;;;;;5055208;28;20219;-65
2022/01/18 08:32:48;;;;;;;44.07;16.00;;;7.40;99.90;;;;;;5074227;28;20553;-66
2022/01/18 08:35:14;;;;;;;40.43;15.50;;;7.40;99.90;;;;;;5075620;28;20239;-66
2022/01/18 08:37:40;;;;;;;38.73;17.23;;;7.40;99.90;;;;;;5075538;28;20583;-66
2022/01/18 08:40:07;;;;;;;36.07;14.17;;;7.40;99.90;;;;;;5093138;28;20183;-65
2022/01/18 08:42:33;;;;;;;38.60;15.67;;;7.70;99.90;;;;;;5075267;28;20188;-65
2022/01/18 08:44:59;;;;;;;29.03;14.70;;;7.80;99.90;;;;;;5092236;28;20195;-66
2022/01/18 08:47:25;;;;;;;25.63;14.47;;;7.80;99.90;;;;;;5074284;28;20186;-66
2022/01/18 08:49:51;;;;;;;28.37;14.57;;;7.60;99.90;;;;;;5089566;28;20216;-66
2022/01/18 08:52:17;;;;;;;27.07;13.90;;;7.50;99.90;;;;;;5074096;28;20213;-66
2022/01/18 08:54:43;;;;;;;39.00;14.13;;;7.50;99.90;;;;;;5081787;28;20213;-65
2022/01/18 08:57:14;;;;;;;31.60;12.97;;;7.60;99.90;;;;;;5093137;28;20261;-65
2022/01/18 08:59:41;;;;;;;44.70;14.10;;;7.70;99.90;;;;;;5092735;28;20213;-66
2022/01/18 09:02:08;;;;;;;32.73;14.03;;;7.90;99.90;;;;;;5087361;28;20169;-66
2022/01/18 09:04:34;;;;;;;33.40;13.27;;;7.80;99.90;;;;;;5072177;28;20257;-66
2022/01/18 09:07:06;;;;;;;33.73;13.53;;;7.80;99.90;;;;;;5039401;28;20593;-66
2022/01/18 09:09:32;;;;;;;32.57;14.60;;;7.80;99.90;;;;;;5073336;28;20227;-66
2022/01/18 09:11:58;;;;;;;35.10;15.90;;;7.80;99.90;;;;;;5043462;28;20224;-66
2022/01/18 09:14:23;;;;;;;30.40;12.83;;;8.00;99.90;;;;;;5057950;28;20273;-66
2022/01/18 09:16:49;;;;;;;33.20;13.10;;;8.00;99.90;;;;;;5074535;28;20257;-65
2022/01/18 09:19:16;;;;;;;30.00;13.40;;;8.10;99.90;;;;;;5074751;28;20195;-67
2022/01/18 09:21:46;;;;;;;23.70;11.33;;;8.20;99.90;;;;;;5092559;28;20206;-65
2022/01/18 09:24:12;;;;;;;35.03;12.23;;;8.20;99.90;;;;;;5061254;28;20725;-66
2022/01/18 09:26:37;;;;;;;25.67;13.33;;;8.30;99.90;;;;;;5087026;28;20264;-66
2022/01/18 09:29:03;;;;;;;30.10;13.10;;;8.40;99.90;;;;;;5091582;28;20271;-66
2022/01/18 09:31:29;;;;;;;31.47;13.33;;;8.40;99.90;;;;;;5063886;28;20646;-65
2022/01/18 09:33:55;;;;;;;33.17;15.83;;;8.30;99.90;;;;;;5058578;28;20203;-66
2022/01/18 09:36:21;;;;;;;34.83;15.67;;;8.50;99.90;;;;;;5084688;28;20678;-66
2022/01/18 09:38:46;;;;;;;35.60;15.97;;;8.60;99.90;;;;;;5065404;28;20185;-66
2022/01/18 09:41:13;;;;;;;32.60;13.73;;;8.60;99.90;;;;;;5076293;28;20182;-66
2022/01/18 09:43:41;;;;;;;56.87;15.57;;;8.70;99.90;;;;;;5082864;28;20185;-66
2022/01/18 09:46:07;;;;;;;38.40;14.97;;;8.70;99.90;;;;;;5092711;28;20177;-66
2022/01/18 09:48:32;;;;;;;34.50;13.67;;;8.70;99.90;;;;;;5083972;28;20591;-66
2022/01/18 09:50:59;;;;;;;31.67;13.20;;;8.60;99.90;;;;;;5066283;28;20608;-66
2022/01/18 09:53:25;;;;;;;28.90;11.47;;;8.80;99.90;;;;;;5087885;28;20201;-66
2022/01/18 09:55:53;;;;;;;35.77;12.53;;;8.90;99.90;;;;;;5055237;28;20181;-66
2022/01/18 09:58:20;;;;;;;32.60;13.23;;;8.80;99.90;;;;;;5087158;28;20245;-66
2022/01/18 10:00:46;;;;;;;35.20;13.30;;;8.70;99.90;;;;;;5064244;28;20264;-66
2022/01/18 10:03:27;;;;;;;28.63;12.37;;;8.70;99.90;;;;;;5052328;28;20189;-66
2022/01/18 10:05:53;;;;;;;29.83;12.90;;;8.60;99.90;;;;;;5080644;28;20173;-66
2022/01/18 10:08:19;;;;;;;31.93;13.47;;;8.60;99.90;;;;;;5051401;28;20184;-66
2022/01/18 10:10:49;;;;;;;32.50;13.53;;;8.60;99.90;;;;;;5090056;28;20686;-66
2022/01/18 10:13:22;;;;;;;24.00;12.47;;;8.80;99.90;;;;;;5096268;28;20267;-66
2022/01/18 10:16:10;;;;;;;33.13;13.67;;;9.00;99.90;;;;;;5096107;28;20259;-68
2022/01/18 10:18:45;;;;;;;30.50;12.73;;;8.80;99.90;;;;;;5078340;28;20189;-66
2022/01/18 10:21:13;;;;;;;39.97;14.60;;;8.90;99.90;;;;;;5076793;28;20185;-66
2022/01/18 10:23:39;;;;;;;27.47;13.80;;;8.90;99.90;;;;;;5063970;28;20524;-67
2022/01/18 10:26:16;;;;;;;29.47;13.17;;;9.00;99.90;;;;;;5078168;28;20183;-67
2022/01/18 10:28:42;;;;;;;30.37;14.10;;;9.10;99.90;;;;;;5076854;28;20191;-67
2022/01/18 10:31:41;;;;;;;30.70;13.73;;;9.30;99.90;;;;;;5076663;28;20213;-67
2022/01/18 10:37:09;;;;;;;23.97;13.67;;;9.60;99.90;;;;;;5072360;28;20196;-66
2022/01/18 10:39:50;;;;;;;25.93;13.57;;;9.70;99.90;;;;;;5076647;28;20189;-66
2022/01/18 10:42:39;;;;;;;30.00;13.70;;;9.90;99.90;;;;;;5090331;28;20176;-66
2022/01/18 10:45:13;;;;;;;30.90;12.97;;;10.00;99.90;;;;;;5094299;28;20181;-66
2022/01/18 10:47:49;;;;;;;29.35;14.05;;;10.20;99.90;;;;;;5065029;28;20180;-66
2022/01/18 10:50:17;;;;;;;28.95;13.65;;;10.10;99.90;;;;;;5071674;28;20207;-66
2022/01/18 10:52:43;;;;;;;25.42;13.82;;;10.00;99.90;;;;;;5095095;28;20183;-68
2022/01/18 10:55:29;;;;;;;35.07;17.27;;;9.90;99.90;;;;;;5077698;28;20184;-66
2022/01/18 10:57:55;;;;;;;40.15;18.65;;;9.70;99.90;;;;;;5076161;28;20346;-66
2022/01/18 11:00:25;;;;;;;30.38;15.55;;;9.70;99.90;;;;;;5095684;28;20620;-67
2022/01/18 11:02:54;;;;;;;30.35;14.73;;;9.70;99.90;;;;;;5076903;28;20176;-67
2022/01/18 11:05:32;;;;;;;29.30;15.15;;;10.00;99.90;;;;;;5095222;28;20196;-67
2022/01/18 11:08:04;;;;;;;32.60;13.68;;;10.20;99.90;;;;;;5088813;28;20184;-66
2022/01/18 11:10:41;;;;;;;31.17;15.40;;;10.40;99.90;;;;;;5075890;28;20217;-66
2022/01/18 11:13:22;;;;;;;33.30;18.02;;;10.60;99.90;;;;;;5073334;28;20178;-66
2022/01/18 11:15:51;;;;;;;40.13;17.77;;;10.70;99.90;;;;;;5093307;28;20285;-66
2022/01/18 11:18:28;;;;;;;37.55;16.35;;;10.70;99.90;;;;;;5075207;28;20197;-66
2022/01/18 11:20:56;;;;;;;36.65;16.15;;;10.80;99.90;;;;;;5076144;28;20586;-67
2022/01/18 11:23:23;;;;;;;31.17;14.27;;;10.70;99.90;;;;;;5057557;28;20189;-67
2022/01/18 11:25:50;;;;;;;41.35;17.00;;;10.70;99.90;;;;;;5057806;28;20597;-67
2022/01/18 11:28:16;;;;;;;31.50;13.85;;;10.60;99.90;;;;;;5061748;28;20288;-66
2022/01/18 11:30:46;;;;;;;24.05;14.13;;;10.50;99.90;;;;;;5077129;28;20697;-67
2022/01/18 11:33:16;;;;;;;30.27;14.68;;;10.60;99.90;;;;;;5091335;28;20180;-66
2022/01/18 11:36:08;;;;;;;35.50;15.18;;;10.50;99.90;;;;;;5071261;28;20199;-67
2022/01/18 11:38:52;;;;;;;30.48;13.00;;;10.60;99.90;;;;;;5095270;28;20191;-68
2022/01/18 11:41:35;;;;;;;25.92;12.90;;;10.60;99.90;;;;;;5094393;28;20177;-66
2022/01/18 11:44:30;;;;;;;26.58;11.85;;;10.60;99.90;;;;;;5076372;28;20198;-67
2022/01/18 11:46:57;;;;;;;26.17;10.70;;;10.70;99.90;;;;;;5064352;28;20193;-67
2022/01/18 11:49:27;;;;;;;21.77;11.57;;;10.80;99.90;;;;;;5048033;28;20235;-67
2022/01/18 11:52:06;;;;;;;28.95;13.13;;;10.80;99.90;;;;;;5090412;28;20176;-70
2022/01/18 11:57:24;;;;;;;21.25;11.00;;;10.60;99.90;;;;;;5083518;28;20239;-67
2022/01/18 11:59:58;;;;;;;21.65;10.45;;;10.60;99.90;;;;;;5077299;28;20185;-68
2022/01/18 12:02:42;;;;;;;19.65;10.88;;;10.70;99.90;;;;;;5073294;28;20191;-68
2022/01/18 12:05:14;;;;;;;22.30;10.98;;;10.80;99.90;;;;;;5086280;28;20255;-66
2022/01/18 12:07:41;;;;;;;26.67;13.02;;;10.90;99.90;;;;;;5067727;28;20181;-66
2022/01/18 12:10:38;;;;;;;18.45;10.32;;;11.00;99.90;;;;;;5075085;28;20620;-66
2022/01/18 12:13:13;;;;;;;23.30;12.05;;;11.10;99.90;;;;;;5087722;28;20188;-66
2022/01/18 12:15:46;;;;;;;19.02;10.38;;;11.20;99.90;;;;;;5057164;28;20199;-66
2022/01/18 12:18:20;;;;;;;21.35;10.75;;;11.00;99.90;;;;;;5074404;28;20638;-66
2022/01/18 12:20:49;;;;;;;27.52;11.48;;;10.40;99.90;;;;;;5074305;28;20196;-66
2022/01/18 12:23:24;;;;;;;23.98;12.48;;;10.40;99.90;;;;;;5074556;28;20527;-66
2022/01/18 12:26:03;;;;;;;31.58;12.63;;;10.70;99.90;;;;;;5087144;28;20215;-66
2022/01/18 12:34:30;;;;;;;18.70;9.05;;;10.50;99.90;;;;;;5092397;28;20183;-66
2022/01/18 12:37:14;;;;;;;14.85;7.85;;;10.30;99.90;;;;;;5093497;28;20214;-66
2022/01/18 12:45:09;;;;;;;11.05;6.53;;;10.40;99.90;;;;;;5093676;28;20199;-66
2022/01/18 12:47:37;;;;;;;13.05;7.50;;;10.70;99.90;;;;;;5075186;28;20630;-66
2022/01/18 12:50:06;;;;;;;12.27;5.22;;;10.90;99.90;;;;;;5074694;28;20243;-67
2022/01/18 12:52:47;;;;;;;10.02;4.28;;;10.90;99.90;;;;;;5062285;28;20185;-67
2022/01/18 12:55:47;;;;;;;8.57;3.22;;;11.00;99.90;;;;;;5085685;28;20208;-67
2022/01/18 12:58:20;;;;;;;7.95;4.30;;;11.00;99.90;;;;;;5092354;28;20617;-68
2022/01/18 13:00:56;;;;;;;7.85;3.95;;;10.80;99.90;;;;;;5078922;28;20182;-67
2022/01/18 13:03:23;;;;;;;11.75;4.05;;;10.60;99.90;;;;;;5089720;28;20277;-67
2022/01/18 13:05:53;;;;;;;11.50;3.63;;;10.60;99.90;;;;;;5073704;28;20170;-66
2022/01/18 13:08:20;;;;;;;7.70;3.73;;;10.10;99.90;;;;;;5074590;28;20189;-67
2022/01/18 13:10:49;;;;;;;15.23;3.80;;;9.80;99.90;;;;;;5093709;28;20681;-67
2022/01/18 13:13:19;;;;;;;12.80;3.97;;;9.70;99.90;;;;;;5091508;28;20187;-67
2022/01/18 13:26:51;;;;;;;9.90;4.10;;;10.60;99.90;;;;;;5090800;28;20211;-67
2022/01/18 13:29:23;;;;;;;9.20;3.43;;;10.70;99.90;;;;;;5078273;28;20184;-67
2022/01/18 13:32:11;;;;;;;9.97;4.23;;;10.80;99.90;;;;;;5071261;28;20181;-67
2022/01/18 13:34:41;;;;;;;7.83;3.70;;;10.60;99.90;;;;;;5085713;28;20173;-67
2022/01/18 13:37:11;;;;;;;10.30;4.13;;;10.80;99.90;;;;;;5092345;28;20181;-67
2022/01/18 13:39:40;;;;;;;10.80;4.30;;;10.60;99.90;;;;;;5074358;28;20193;-67
2022/01/18 13:42:10;;;;;;;12.00;4.40;;;10.60;99.90;;;;;;5065599;28;20315;-69
2022/01/18 13:44:35;;;;;;;13.05;4.35;;;10.20;99.90;;;;;;5081893;28;20193;-67
2022/01/18 13:47:36;;;;;;;11.33;5.03;;;10.00;99.90;;;;;;5057623;28;20180;-68
2022/01/18 13:50:02;;;;;;;16.33;4.90;;;9.90;99.90;;;;;;5074383;28;20220;-67
2022/01/18 13:52:30;;;;;;;8.60;4.90;;;10.10;99.90;;;;;;5070927;28;20291;-67
2022/01/18 13:54:56;;;;;;;14.37;4.60;;;10.20;99.90;;;;;;5072961;28;20177;-67
2022/01/18 13:57:22;;;;;;;11.63;4.57;;;10.00;99.90;;;;;;5073593;28;20187;-68
2022/01/18 13:59:50;;;;;;;14.17;4.93;;;9.70;99.90;;;;;;5074752;28;20192;-69
2022/01/18 14:02:22;;;;;;;10.37;4.00;;;9.50;99.90;;;;;;5064158;28;20208;-68
2022/01/18 14:05:09;;;;;;;14.57;3.90;;;9.50;99.90;;;;;;5071357;28;20202;-67
2022/01/18 14:07:35;;;;;;;12.50;4.70;;;9.50;99.90;;;;;;5091913;28;20180;-67
2022/01/18 14:10:02;;;;;;;10.40;4.50;;;9.60;99.90;;;;;;5074050;28;20224;-67
2022/01/18 14:12:33;;;;;;;8.47;4.23;;;10.00;99.90;;;;;;5081369;28;20200;-67